sensor_id;sensor_type;location;lat;lon;timestamp;pressure;altitude;pressure_sealevel;temperature;humidity
22047;BME280;11187;49.412;20.956;2024-03-06T00:00:28;94974.53;;;4.62;100.00
22047;BME280;11187;49.412;20.956;2024-03-06T00:03:01;94970.31;;;4.64;100.00
22047;BME280;11187;49.412;20.956;2024-03-06T00:05:48;94973.69;;;4.63;100.00
22047;BME280;11187;49.412;20.956;2024-03-06T00:08:21;94966.94;;;4.65;100.00
22047;BME280;11187;49.412;20.956;2024-03-06T00:11:08;94977.09;;;4.67;100.00
22047;BME280;11187;49.412;20.956;2024-03-06T00:13:42;94970.34;;;4.66;100.00
22047;BME280;11187;49.412;20.956;2024-03-06T00:16:29;94976.25;;;4.66;100.00
22047;BME280;11187;49.412;20.956;2024-03-06T00:19:02;94975.41;;;4.67;100.00
22047;BME280;11187;49.412;20.956;2024-03-06T00:21:49;94981.31;;;4.68;100.00
22047;BME280;11187;49.412;20.956;2024-03-06T00:24:36;94975.41;;;4.66;100.00
22047;BME280;11187;49.412;20.956;2024-03-06T00:27:30;94980.47;;;4.66;100.00
22047;BME280;11187;49.412;20.956;2024-03-06T00:30:04;94972.88;;;4.66;100.00
22047;BME280;11187;49.412;20.956;2024-03-06T00:32:51;94977.09;;;4.67;100.00
22047;BME280;11187;49.412;20.956;2024-03-06T00:35:25;94976.22;;;4.68;100.00
22047;BME280;11187;49.412;20.956;2024-03-06T00:38:18;94980.47;;;4.69;100.00
22047;BME280;11187;49.412;20.956;2024-03-06T00:41:12;94983.00;;;4.69;100.00
22047;BME280;11187;49.412;20.956;2024-03-06T00:43:46;94980.50;;;4.70;100.00
22047;BME280;11187;49.412;20.956;2024-03-06T00:46:32;94972.88;;;4.70;100.00
22047;BME280;11187;49.412;20.956;2024-03-06T00:49:06;94980.50;;;4.70;100.00
22047;BME280;11187;49.412;20.956;2024-03-06T00:51:59;94972.88;;;4.70;100.00
22047;BME280;11187;49.412;20.956;2024-03-06T00:54:53;94980.50;;;4.70;100.00
22047;BME280;11187;49.412;20.956;2024-03-06T00:57:33;94985.56;;;4.70;100.00
22047;BME280;11187;49.412;20.956;2024-03-06T01:00:14;94981.31;;;4.71;100.00
22047;BME280;11187;49.412;20.956;2024-03-06T01:02:55;94976.25;;;4.71;100.00
22047;BME280;11187;49.412;20.956;2024-03-06T01:05:35;94976.25;;;4.69;100.00
22047;BME280;11187;49.412;20.956;2024-03-06T01:08:15;94982.16;;;4.70;100.00
22047;BME280;11187;49.412;20.956;2024-03-06T01:10:57;94983.03;;;4.70;100.00
22047;BME280;11187;49.412;20.956;2024-03-06T01:13:37;94983.00;;;4.69;100.00
22047;BME280;11187;49.412;20.956;2024-03-06T01:16:17;94977.09;;;4.68;100.00
22047;BME280;11187;49.412;20.956;2024-03-06T01:18:57;94979.63;;;4.67;100.00
22047;BME280;11187;49.412;20.956;2024-03-06T01:21:38;94973.69;;;4.65;100.00
22047;BME280;11187;49.412;20.956;2024-03-06T01:24:24;94980.47;;;4.64;100.00
22047;BME280;11187;49.412;20.956;2024-03-06T01:27:18;94985.53;;;4.64;100.00
22047;BME280;11187;49.412;20.956;2024-03-06T01:29:52;94977.94;;;4.64;100.00
22047;BME280;11187;49.412;20.956;2024-03-06T01:32:45;94976.25;;;4.62;100.00
22047;BME280;11187;49.412;20.956;2024-03-06T01:35:39;94987.22;;;4.62;100.00
22047;BME280;11187;49.412;20.956;2024-03-06T01:38:13;94985.53;;;4.59;100.00
22047;BME280;11187;49.412;20.956;2024-03-06T01:41:06;94988.06;;;4.58;100.00
22047;BME280;11187;49.412;20.956;2024-03-06T01:44:01;94981.28;;;4.58;100.00
22047;BME280;11187;49.412;20.956;2024-03-06T01:46:36;94984.69;;;4.57;100.00
22047;BME280;11187;49.412;20.956;2024-03-06T01:49:23;94990.59;;;4.55;100.00
22047;BME280;11187;49.412;20.956;2024-03-06T01:52:11;94982.16;;;4.54;100.00
22047;BME280;11187;49.412;20.956;2024-03-06T01:54:59;94992.28;;;4.54;100.00
22047;BME280;11187;49.412;20.956;2024-03-06T01:57:40;94983.81;;;4.55;100.00
22047;BME280;11187;49.412;20.956;2024-03-06T02:00:27;94983.81;;;4.52;100.00
22047;BME280;11187;49.412;20.956;2024-03-06T02:03:07;94983.78;;;4.49;100.00
22047;BME280;11187;49.412;20.956;2024-03-06T02:05:51;94983.81;;;4.52;100.00
22047;BME280;11187;49.412;20.956;2024-03-06T02:08:32;94976.19;;;4.49;100.00
22047;BME280;11187;49.412;20.956;2024-03-06T02:11:12;94979.59;;;4.48;100.00
22047;BME280;11187;49.412;20.956;2024-03-06T02:13:52;94980.44;;;4.46;100.00
22047;BME280;11187;49.412;20.956;2024-03-06T02:16:32;94983.78;;;4.45;100.00
22047;BME280;11187;49.412;20.956;2024-03-06T02:19:14;94971.97;;;4.45;100.00
22047;BME280;11187;49.412;20.956;2024-03-06T02:21:54;94979.56;;;4.41;100.00
22047;BME280;11187;49.412;20.956;2024-03-06T02:24:44;94980.41;;;4.39;100.00
22047;BME280;11187;49.412;20.956;2024-03-06T02:27:39;94981.25;;;4.38;100.00
22047;BME280;11187;49.412;20.956;2024-03-06T02:30:13;94984.63;;;4.37;100.00
22047;BME280;11187;49.412;20.956;2024-03-06T02:32:53;94977.84;;;4.33;100.00
22047;BME280;11187;49.412;20.956;2024-03-06T02:35:33;94974.47;;;4.33;100.00
22047;BME280;11187;49.412;20.956;2024-03-06T02:38:13;94979.53;;;4.33;100.00
22047;BME280;11187;49.412;20.956;2024-03-06T02:40:53;94975.31;;;4.32;100.00
22047;BME280;11187;49.412;20.956;2024-03-06T02:43:47;94975.28;;;4.29;100.00
22047;BME280;11187;49.412;20.956;2024-03-06T02:46:41;94983.75;;;4.29;100.00
22047;BME280;11187;49.412;20.956;2024-03-06T02:49:16;94981.22;;;4.29;100.00
22047;BME280;11187;49.412;20.956;2024-03-06T02:52:03;94974.47;;;4.30;100.00
22047;BME280;11187;49.412;20.956;2024-03-06T02:54:37;94986.28;;;4.31;100.00
22047;BME280;11187;49.412;20.956;2024-03-06T02:57:26;94983.75;;;4.29;100.00
22047;BME280;11187;49.412;20.956;2024-03-06T03:00:08;94985.44;;;4.30;100.00
22047;BME280;11187;49.412;20.956;2024-03-06T03:02:55;94986.28;;;4.31;100.00
22047;BME280;11187;49.412;20.956;2024-03-06T03:05:36;94988.81;;;4.31;100.00
22047;BME280;11187;49.412;20.956;2024-03-06T03:08:22;94992.19;;;4.30;100.00
22047;BME280;11187;49.412;20.956;2024-03-06T03:11:03;94997.28;;;4.30;100.00
22047;BME280;11187;49.412;20.956;2024-03-06T03:13:49;94998.09;;;4.30;100.00
22047;BME280;11187;49.412;20.956;2024-03-06T03:16:22;95001.50;;;4.29;100.00
22047;BME280;11187;49.412;20.956;2024-03-06T03:19:09;94999.81;;;4.30;100.00
22047;BME280;11187;49.412;20.956;2024-03-06T03:21:44;94998.09;;;4.30;100.00
22047;BME280;11187;49.412;20.956;2024-03-06T03:24:31;94998.09;;;4.29;100.00
22047;BME280;11187;49.412;20.956;2024-03-06T03:27:25;94998.09;;;4.26;100.00
22047;BME280;11187;49.412;20.956;2024-03-06T03:29:59;94997.22;;;4.27;100.00
22047;BME280;11187;49.412;20.956;2024-03-06T03:32:45;95002.31;;;4.28;100.00
22047;BME280;11187;49.412;20.956;2024-03-06T03:35:19;95004.84;;;4.28;100.00
22047;BME280;11187;49.412;20.956;2024-03-06T03:38:05;95005.69;;;4.23;100.00
22047;BME280;11187;49.412;20.956;2024-03-06T03:40:39;95013.28;;;4.23;100.00
22047;BME280;11187;49.412;20.956;2024-03-06T03:43:25;95006.50;;;4.18;100.00
22047;BME280;11187;49.412;20.956;2024-03-06T03:46:05;95006.47;;;4.12;100.00
22047;BME280;11187;49.412;20.956;2024-03-06T03:48:49;95015.75;;;4.10;100.00
22047;BME280;11187;49.412;20.956;2024-03-06T03:51:29;95013.22;;;4.10;100.00
22047;BME280;11187;49.412;20.956;2024-03-06T03:54:11;95016.56;;;4.03;100.00
22047;BME280;11187;49.412;20.956;2024-03-06T03:56:51;95019.09;;;4.03;100.00
22047;BME280;11187;49.412;20.956;2024-03-06T03:59:34;95008.94;;;3.97;100.00
22047;BME280;11187;49.412;20.956;2024-03-06T04:02:17;95019.94;;;3.97;100.00
22047;BME280;11187;49.412;20.956;2024-03-06T04:04:49;95013.16;;;3.98;100.00
22047;BME280;11187;49.412;20.956;2024-03-06T04:07:36;95019.06;;;3.97;100.00
22047;BME280;11187;49.412;20.956;2024-03-06T04:10:17;95025.00;;;3.97;100.00
22047;BME280;11187;49.412;20.956;2024-03-06T04:12:56;95022.44;;;3.99;100.00
22047;BME280;11187;49.412;20.956;2024-03-06T04:15:39;95025.84;;;3.98;100.00
22047;BME280;11187;49.412;20.956;2024-03-06T04:18:19;95024.16;;;4.00;100.00
22047;BME280;11187;49.412;20.956;2024-03-06T04:21:06;95025.84;;;4.01;100.00
22047;BME280;11187;49.412;20.956;2024-03-06T04:23:51;95024.13;;;3.98;100.00
22047;BME280;11187;49.412;20.956;2024-03-06T04:26:31;95029.19;;;3.95;100.00
22047;BME280;11187;49.412;20.956;2024-03-06T04:29:13;95030.03;;;3.94;100.00
22047;BME280;11187;49.412;20.956;2024-03-06T04:31:53;95030.03;;;3.93;100.00
22047;BME280;11187;49.412;20.956;2024-03-06T04:34:40;95024.94;;;3.91;100.00
22047;BME280;11187;49.412;20.956;2024-03-06T04:37:13;95030.03;;;3.94;100.00
22047;BME280;11187;49.412;20.956;2024-03-06T04:40:04;95023.28;;;3.96;100.00
22047;BME280;11187;49.412;20.956;2024-03-06T04:42:48;95024.97;;;3.94;100.00
22047;BME280;11187;49.412;20.956;2024-03-06T04:45:34;95021.56;;;3.92;100.00
22047;BME280;11187;49.412;20.956;2024-03-06T04:48:15;95026.66;;;3.91;100.00
22047;BME280;11187;49.412;20.956;2024-03-06T04:51:01;95024.91;;;3.88;100.00
22047;BME280;11187;49.412;20.956;2024-03-06T04:53:35;95020.72;;;3.89;100.00
22047;BME280;11187;49.412;20.956;2024-03-06T04:56:21;95024.09;;;3.86;100.00
22047;BME280;11187;49.412;20.956;2024-03-06T04:58:55;95024.09;;;3.86;100.00
22047;BME280;11187;49.412;20.956;2024-03-06T05:01:49;95027.47;;;3.87;100.00
22047;BME280;11187;49.412;20.956;2024-03-06T05:04:45;95028.28;;;3.86;100.00
22047;BME280;11187;49.412;20.956;2024-03-06T05:07:37;95026.59;;;3.85;100.00
22047;BME280;11187;49.412;20.956;2024-03-06T05:10:49;95030.81;;;3.83;100.00
22047;BME280;11187;49.412;20.956;2024-03-06T05:13:40;95029.09;;;3.83;100.00
22047;BME280;11187;49.412;20.956;2024-03-06T05:16:51;95037.53;;;3.79;100.00
22047;BME280;11187;49.412;20.956;2024-03-06T05:20:03;95029.91;;;3.76;100.00
22047;BME280;11187;49.412;20.956;2024-03-06T05:23:13;95029.06;;;3.74;100.00
22047;BME280;11187;49.412;20.956;2024-03-06T05:26:12;95034.94;;;3.70;100.00
22047;BME280;11187;49.412;20.956;2024-03-06T05:29:09;95030.75;;;3.70;100.00
22047;BME280;11187;49.412;20.956;2024-03-06T05:32:07;95031.59;;;3.72;100.00
22047;BME280;11187;49.412;20.956;2024-03-06T05:35:04;95029.88;;;3.71;100.00
22047;BME280;11187;49.412;20.956;2024-03-06T05:38:01;95034.09;;;3.69;100.00
22047;BME280;11187;49.412;20.956;2024-03-06T05:40:57;95045.91;;;3.72;100.00
22047;BME280;11187;49.412;20.956;2024-03-06T05:43:54;95043.41;;;3.70;100.00
22047;BME280;11187;49.412;20.956;2024-03-06T05:46:52;95040.84;;;3.69;100.00
22047;BME280;11187;49.412;20.956;2024-03-06T05:49:56;95041.69;;;3.71;100.00
22047;BME280;11187;49.412;20.956;2024-03-06T05:53:08;95045.91;;;3.66;100.00
22047;BME280;11187;49.412;20.956;2024-03-06T05:56:20;95055.97;;;3.63;100.00
22047;BME280;11187;49.412;20.956;2024-03-06T05:59:11;95053.47;;;3.64;100.00
22047;BME280;11187;49.412;20.956;2024-03-06T06:01:58;95056.00;;;3.64;100.00
22047;BME280;11187;49.412;20.956;2024-03-06T06:04:32;95054.31;;;3.68;100.00
22047;BME280;11187;49.412;20.956;2024-03-06T06:07:30;95061.94;;;3.69;100.00
22047;BME280;11187;49.412;20.956;2024-03-06T06:10:04;95062.75;;;3.65;100.00
22047;BME280;11187;49.412;20.956;2024-03-06T06:12:45;95060.19;;;3.61;100.00
22047;BME280;11187;49.412;20.956;2024-03-06T06:15:24;95071.13;;;3.55;100.00
22047;BME280;11187;49.412;20.956;2024-03-06T06:17:58;95056.75;;;3.52;100.00
22047;BME280;11187;49.412;20.956;2024-03-06T06:20:44;95057.63;;;3.54;100.00
22047;BME280;11187;49.412;20.956;2024-03-06T06:23:18;95064.34;;;3.52;100.00
22047;BME280;11187;49.412;20.956;2024-03-06T06:26:04;95065.19;;;3.50;100.00
22047;BME280;11187;49.412;20.956;2024-03-06T06:28:40;95064.31;;;3.49;100.00
22047;BME280;11187;49.412;20.956;2024-03-06T06:31:27;95066.84;;;3.48;100.00
22047;BME280;11187;49.412;20.956;2024-03-06T06:34:01;95066.84;;;3.48;100.00
22047;BME280;11187;49.412;20.956;2024-03-06T06:36:47;95066.84;;;3.49;100.00
22047;BME280;11187;49.412;20.956;2024-03-06T06:39:21;95065.19;;;3.51;100.00
22047;BME280;11187;49.412;20.956;2024-03-06T06:42:07;95066.03;;;3.53;100.00
22047;BME280;11187;49.412;20.956;2024-03-06T06:44:42;95064.34;;;3.54;100.00
22047;BME280;11187;49.412;20.956;2024-03-06T06:47:28;95071.13;;;3.55;100.00
22047;BME280;11187;49.412;20.956;2024-03-06T06:50:02;95075.31;;;3.51;100.00
22047;BME280;11187;49.412;20.956;2024-03-06T06:52:49;95071.09;;;3.50;100.00
22047;BME280;11187;49.412;20.956;2024-03-06T06:55:43;95074.44;;;3.48;100.00
22047;BME280;11187;49.412;20.956;2024-03-06T06:58:37;95071.88;;;3.45;100.00
22047;BME280;11187;49.412;20.956;2024-03-06T07:01:11;95067.66;;;3.41;100.00
22047;BME280;11187;49.412;20.956;2024-03-06T07:03:57;95072.69;;;3.39;100.00
22047;BME280;11187;49.412;20.956;2024-03-06T07:06:31;95065.91;;;3.37;100.00
22047;BME280;11187;49.412;20.956;2024-03-06T07:09:24;95067.56;;;3.33;100.00
22047;BME280;11187;49.412;20.956;2024-03-06T07:12:02;95065.88;;;3.32;100.00
22047;BME280;11187;49.412;20.956;2024-03-06T07:14:56;95067.56;;;3.33;100.00
22047;BME280;11187;49.412;20.956;2024-03-06T07:17:30;95070.94;;;3.35;100.00
22047;BME280;11187;49.412;20.956;2024-03-06T07:20:23;95070.97;;;3.38;100.00
22047;BME280;11187;49.412;20.956;2024-03-06T07:23:17;95067.66;;;3.41;100.00
22047;BME280;11187;49.412;20.956;2024-03-06T07:26:11;95070.16;;;3.39;100.00
22047;BME280;11187;49.412;20.956;2024-03-06T07:29:05;95073.53;;;3.41;100.00
22047;BME280;11187;49.412;20.956;2024-03-06T07:31:46;95074.41;;;3.43;100.00
22047;BME280;11187;49.412;20.956;2024-03-06T07:34:34;95071.06;;;3.46;100.00
22047;BME280;11187;49.412;20.956;2024-03-06T07:37:07;95071.06;;;3.46;100.00
22047;BME280;11187;49.412;20.956;2024-03-06T07:39:54;95071.00;;;3.43;100.00
22047;BME280;11187;49.412;20.956;2024-03-06T07:42:28;95072.72;;;3.47;100.00
22047;BME280;11187;49.412;20.956;2024-03-06T07:45:14;95071.06;;;3.52;100.00
22047;BME280;11187;49.412;20.956;2024-03-06T07:47:48;95079.56;;;3.55;100.00
22047;BME280;11187;49.412;20.956;2024-03-06T07:50:34;95075.34;;;3.56;100.00
22047;BME280;11187;49.412;20.956;2024-03-06T07:53:08;95074.50;;;3.59;100.00
22047;BME280;11187;49.412;20.956;2024-03-06T07:56:03;95083.88;;;3.66;100.00
22047;BME280;11187;49.412;20.956;2024-03-06T07:58:43;95077.16;;;3.71;100.00
22047;BME280;11187;49.412;20.956;2024-03-06T08:01:23;95070.44;;;3.79;100.00
22047;BME280;11187;49.412;20.956;2024-03-06T08:04:03;95078.06;;;3.84;100.00
22047;BME280;11187;49.412;20.956;2024-03-06T08:06:49;95074.72;;;3.85;100.00
22047;BME280;11187;49.412;20.956;2024-03-06T08:09:23;95081.50;;;3.92;100.00
22047;BME280;11187;49.412;20.956;2024-03-06T08:12:11;95079.06;;;4.03;100.00
22047;BME280;11187;49.412;20.956;2024-03-06T08:14:45;95078.22;;;4.05;100.00
22047;BME280;11187;49.412;20.956;2024-03-06T08:17:32;95074.88;;;4.09;100.00
22047;BME280;11187;49.412;20.956;2024-03-06T08:20:07;95080.78;;;4.13;100.00
22047;BME280;11187;49.412;20.956;2024-03-06T08:22:56;95074.06;;;4.13;100.00
22047;BME280;11187;49.412;20.956;2024-03-06T08:25:29;95078.31;;;4.21;100.00
22047;BME280;11187;49.412;20.956;2024-03-06T08:28:22;95078.31;;;4.27;100.00
22047;BME280;11187;49.412;20.956;2024-03-06T08:31:16;95080.03;;;4.28;100.00
22047;BME280;11187;49.412;20.956;2024-03-06T08:34:11;95079.22;;;4.30;100.00
22047;BME280;11187;49.412;20.956;2024-03-06T08:36:45;95078.34;;;4.31;100.00
22047;BME280;11187;49.412;20.956;2024-03-06T08:39:41;95075.84;;;4.33;100.00
22047;BME280;11187;49.412;20.956;2024-03-06T08:42:36;95072.47;;;4.35;100.00
22047;BME280;11187;49.412;20.956;2024-03-06T08:45:10;95084.31;;;4.39;100.00
22047;BME280;11187;49.412;20.956;2024-03-06T08:47:56;95083.50;;;4.45;100.00
22047;BME280;11187;49.412;20.956;2024-03-06T08:50:30;95087.78;;;4.52;100.00
22047;BME280;11187;49.412;20.956;2024-03-06T08:53:16;95081.03;;;4.54;100.00
22047;BME280;11187;49.412;20.956;2024-03-06T08:55:50;95088.66;;;4.62;100.00
22047;BME280;11187;49.412;20.956;2024-03-06T08:58:36;95087.78;;;4.63;100.00
22047;BME280;11187;49.412;20.956;2024-03-06T09:01:10;95094.59;;;4.66;100.00
22047;BME280;11187;49.412;20.956;2024-03-06T09:04:04;95081.91;;;4.69;100.00
22047;BME280;11187;49.412;20.956;2024-03-06T09:06:37;95089.53;;;4.66;100.00
22047;BME280;11187;49.412;20.956;2024-03-06T09:09:30;95092.03;;;4.64;100.00
22047;BME280;11187;49.412;20.956;2024-03-06T09:12:24;95081.91;;;4.66;100.00
22047;BME280;11187;49.412;20.956;2024-03-06T09:15:18;95090.34;;;4.66;100.00
22047;BME280;11187;49.412;20.956;2024-03-06T09:17:52;95081.06;;;4.68;100.00
22047;BME280;11187;49.412;20.956;2024-03-06T09:20:38;95084.47;;;4.70;100.00
22047;BME280;11187;49.412;20.956;2024-03-06T09:23:12;95081.91;;;4.64;100.00
22047;BME280;11187;49.412;20.956;2024-03-06T09:26:05;95081.06;;;4.68;100.00
22047;BME280;11187;49.412;20.956;2024-03-06T09:28:59;95079.41;;;4.73;100.00
22047;BME280;11187;49.412;20.956;2024-03-06T09:31:34;95084.44;;;4.66;99.72
22047;BME280;11187;49.412;20.956;2024-03-06T09:34:20;95076.81;;;4.63;100.00
22047;BME280;11187;49.412;20.956;2024-03-06T09:36:54;95076.84;;;4.66;100.00
22047;BME280;11187;49.412;20.956;2024-03-06T09:39:40;95081.06;;;4.67;100.00
22047;BME280;11187;49.412;20.956;2024-03-06T09:42:17;95080.19;;;4.68;100.00
22047;BME280;11187;49.412;20.956;2024-03-06T09:45:04;95082.75;;;4.69;100.00
22047;BME280;11187;49.412;20.956;2024-03-06T09:47:38;95088.66;;;4.65;100.00
22047;BME280;11187;49.412;20.956;2024-03-06T09:50:35;95090.31;;;4.60;100.00
22047;BME280;11187;49.412;20.956;2024-03-06T09:53:32;95085.22;;;4.55;100.00
22047;BME280;11187;49.412;20.956;2024-03-06T09:56:07;95082.69;;;4.54;100.00
22047;BME280;11187;49.412;20.956;2024-03-06T09:58:55;95092.81;;;4.48;100.00
22047;BME280;11187;49.412;20.956;2024-03-06T10:01:31;95086.88;;;4.47;100.00
22047;BME280;11187;49.412;20.956;2024-03-06T10:06:54;95091.16;;;4.53;100.00
22047;BME280;11187;49.412;20.956;2024-03-06T10:09:42;95095.34;;;4.54;100.00
22047;BME280;11187;49.412;20.956;2024-03-06T10:12:17;95089.44;;;4.53;100.00
22047;BME280;11187;49.412;20.956;2024-03-06T10:15:06;95089.44;;;4.52;100.00
22047;BME280;11187;49.412;20.956;2024-03-06T10:17:40;95097.91;;;4.52;100.00
22047;BME280;11187;49.412;20.956;2024-03-06T10:20:28;95099.59;;;4.55;100.00
22047;BME280;11187;49.412;20.956;2024-03-06T10:23:02;95097.91;;;4.54;100.00
22047;BME280;11187;49.412;20.956;2024-03-06T10:25:55;95091.97;;;4.50;100.00
22047;BME280;11187;49.412;20.956;2024-03-06T10:28:49;95091.97;;;4.49;100.00
22047;BME280;11187;49.412;20.956;2024-03-06T10:31:52;95085.19;;;4.46;100.00
22047;BME280;11187;49.412;20.956;2024-03-06T10:34:46;95092.81;;;4.48;100.00
22047;BME280;11187;49.412;20.956;2024-03-06T10:37:20;95091.94;;;4.43;100.00
22047;BME280;11187;49.412;20.956;2024-03-06T10:40:15;95088.56;;;4.39;100.00
22047;BME280;11187;49.412;20.956;2024-03-06T10:43:10;95094.44;;;4.38;100.00
22047;BME280;11187;49.412;20.956;2024-03-06T10:46:06;95095.28;;;4.35;100.00
22047;BME280;11187;49.412;20.956;2024-03-06T10:49:02;95095.28;;;4.34;100.00
22047;BME280;11187;49.412;20.956;2024-03-06T10:51:59;95096.09;;;4.25;100.00
22047;BME280;11187;49.412;20.956;2024-03-06T10:54:54;95100.31;;;4.25;100.00
22047;BME280;11187;49.412;20.956;2024-03-06T10:57:49;95093.53;;;4.21;100.00
22047;BME280;11187;49.412;20.956;2024-03-06T11:00:47;95090.13;;;4.18;100.00
22047;BME280;11187;49.412;20.956;2024-03-06T11:03:42;95092.66;;;4.18;100.00
22047;BME280;11187;49.412;20.956;2024-03-06T11:06:35;95096.91;;;4.21;100.00
22047;BME280;11187;49.412;20.956;2024-03-06T11:09:33;95086.66;;;4.06;100.00
22047;BME280;11187;49.412;20.956;2024-03-06T11:12:09;95093.41;;;4.05;100.00
22047;BME280;11187;49.412;20.956;2024-03-06T11:14:55;95087.50;;;4.05;100.00
22047;BME280;11187;49.412;20.956;2024-03-06T11:17:36;95082.47;;;4.08;100.00
22047;BME280;11187;49.412;20.956;2024-03-06T11:20:23;95084.16;;;4.09;100.00
22047;BME280;11187;49.412;20.956;2024-03-06T11:28:32;95071.56;;;4.21;100.00
22047;BME280;11187;49.412;20.956;2024-03-06T11:31:20;95069.88;;;4.23;100.00
22047;BME280;11187;49.412;20.956;2024-03-06T11:33:57;95072.44;;;4.25;100.00
22047;BME280;11187;49.412;20.956;2024-03-06T11:36:46;95074.94;;;4.22;100.00
22047;BME280;11187;49.412;20.956;2024-03-06T11:39:29;95076.63;;;4.18;100.00
22047;BME280;11187;49.412;20.956;2024-03-06T11:42:16;95082.53;;;4.18;100.00
22047;BME280;11187;49.412;20.956;2024-03-06T11:44:53;95078.28;;;4.17;100.00
22047;BME280;11187;49.412;20.956;2024-03-06T11:48:01;95083.34;;;4.17;100.00
22047;BME280;11187;49.412;20.956;2024-03-06T11:50:42;95076.63;;;4.21;100.00
22047;BME280;11187;49.412;20.956;2024-03-06T11:53:30;95080.84;;;4.19;100.00
22047;BME280;11187;49.412;20.956;2024-03-06T11:56:25;95081.66;;;4.15;100.00
22047;BME280;11187;49.412;20.956;2024-03-06T11:59:27;95074.03;;;4.12;100.00
22047;BME280;11187;49.412;20.956;2024-03-06T12:02:21;95063.03;;;4.10;100.00
22047;BME280;11187;49.412;20.956;2024-03-06T12:05:15;95076.50;;;4.04;100.00
22047;BME280;11187;49.412;20.956;2024-03-06T12:07:50;95073.13;;;4.01;100.00
22047;BME280;11187;49.412;20.956;2024-03-06T12:10:37;95069.72;;;3.94;100.00
22047;BME280;11187;49.412;20.956;2024-03-06T12:13:18;95077.31;;;3.95;100.00
22047;BME280;11187;49.412;20.956;2024-03-06T12:15:58;95072.25;;;3.94;100.00
22047;BME280;11187;49.412;20.956;2024-03-06T12:18:38;95073.09;;;3.93;100.00
22047;BME280;11187;49.412;20.956;2024-03-06T12:21:31;95065.47;;;3.94;100.00
22047;BME280;11187;49.412;20.956;2024-03-06T12:24:04;95070.56;;;3.96;100.00
22047;BME280;11187;49.412;20.956;2024-03-06T12:27:03;95069.69;;;3.91;100.00
22047;BME280;11187;49.412;20.956;2024-03-06T12:29:58;95063.75;;;3.87;100.00
22047;BME280;11187;49.412;20.956;2024-03-06T12:32:59;95061.19;;;3.86;100.00
22047;BME280;11187;49.412;20.956;2024-03-06T12:35:33;95059.50;;;3.80;100.00
22047;BME280;11187;49.412;20.956;2024-03-06T12:38:19;95057.78;;;3.78;100.00
22047;BME280;11187;49.412;20.956;2024-03-06T12:40:53;95060.34;;;3.84;100.00
22047;BME280;11187;49.412;20.956;2024-03-06T12:43:40;95061.25;;;3.92;100.00
22047;BME280;11187;49.412;20.956;2024-03-06T12:46:13;95064.63;;;3.94;100.00
22047;BME280;11187;49.412;20.956;2024-03-06T12:49:07;95068.00;;;3.94;100.00
22047;BME280;11187;49.412;20.956;2024-03-06T12:51:40;95066.38;;;3.98;100.00
22047;BME280;11187;49.412;20.956;2024-03-06T12:54:27;95068.03;;;3.99;100.00
22047;BME280;11187;49.412;20.956;2024-03-06T12:57:00;95064.66;;;3.95;100.00
22047;BME280;11187;49.412;20.956;2024-03-06T12:59:55;95066.38;;;3.98;100.00
22047;BME280;11187;49.412;20.956;2024-03-06T13:02:35;95070.56;;;3.99;100.00
22047;BME280;11187;49.412;20.956;2024-03-06T13:05:22;95073.13;;;3.97;100.00
22047;BME280;11187;49.412;20.956;2024-03-06T13:08:02;95075.66;;;3.99;100.00
22047;BME280;11187;49.412;20.956;2024-03-06T13:10:42;95070.59;;;4.01;100.00
22047;BME280;11187;49.412;20.956;2024-03-06T13:13:23;95070.59;;;4.04;100.00
22047;BME280;11187;49.412;20.956;2024-03-06T13:16:06;95061.31;;;4.04;100.00
22047;BME280;11187;49.412;20.956;2024-03-06T13:18:46;95061.31;;;4.03;100.00
22047;BME280;11187;49.412;20.956;2024-03-06T13:21:28;95053.69;;;3.96;100.00
22047;BME280;11187;49.412;20.956;2024-03-06T13:24:08;95057.06;;;3.95;100.00
22047;BME280;11187;49.412;20.956;2024-03-06T13:27:02;95053.69;;;3.96;100.00
22047;BME280;11187;49.412;20.956;2024-03-06T13:29:56;95062.97;;;3.99;100.00
22047;BME280;11187;49.412;20.956;2024-03-06T13:32:52;95062.09;;;3.94;100.00
22047;BME280;11187;49.412;20.956;2024-03-06T13:35:25;95052.81;;;3.94;100.00
22047;BME280;11187;49.412;20.956;2024-03-06T13:38:13;95061.25;;;3.92;100.00
22047;BME280;11187;49.412;20.956;2024-03-06T13:40:46;95057.03;;;3.92;100.00
22047;BME280;11187;49.412;20.956;2024-03-06T13:43:40;95057.88;;;3.91;100.00
22047;BME280;11187;49.412;20.956;2024-03-06T13:46:13;95059.50;;;3.82;100.00
22047;BME280;11187;49.412;20.956;2024-03-06T13:49:00;95054.41;;;3.75;100.00
22047;BME280;11187;49.412;20.956;2024-03-06T13:51:33;95056.03;;;3.72;100.00
22047;BME280;11187;49.412;20.956;2024-03-06T13:54:27;95061.16;;;3.75;100.00
22047;BME280;11187;49.412;20.956;2024-03-06T13:57:21;95058.59;;;3.76;100.00
22047;BME280;11187;49.412;20.956;2024-03-06T14:00:15;95054.41;;;3.77;100.00
22047;BME280;11187;49.412;20.956;2024-03-06T14:03:09;95058.66;;;3.80;100.00
22047;BME280;11187;49.412;20.956;2024-03-06T14:05:45;95062.03;;;3.80;100.00
22047;BME280;11187;49.412;20.956;2024-03-06T14:08:32;95062.00;;;3.77;100.00
22047;BME280;11187;49.412;20.956;2024-03-06T14:11:05;95059.47;;;3.75;100.00
22047;BME280;11187;49.412;20.956;2024-03-06T14:14:00;95056.06;;;3.76;100.00
22047;BME280;11187;49.412;20.956;2024-03-06T14:16:56;95064.53;;;3.77;100.00
22047;BME280;11187;49.412;20.956;2024-03-06T14:19:29;95061.97;;;3.74;100.00
22047;BME280;11187;49.412;20.956;2024-03-06T14:22:24;95057.72;;;3.68;100.00
22047;BME280;11187;49.412;20.956;2024-03-06T14:25:18;95067.84;;;3.68;100.00
22047;BME280;11187;49.412;20.956;2024-03-06T14:28:14;95071.22;;;3.69;100.00
22047;BME280;11187;49.412;20.956;2024-03-06T14:30:48;95075.44;;;3.70;100.00